Time;durP1;ratioP1;P1;durP2;ratioP2;P2;SDS_P1;SDS_P2;PMS_P1;PMS_P2;Temp;Humidity;BMP_temperature;BMP_pressure;BME280_temperature;BME280_humidity;BME280_pressure;Samples;Min_cycle;Max_cycle;Signal;HPM_P1;HPM_P2
2022/02/18 00:00:56;;;;;;;14.82;6.63;;;;;;;7.24;55.75;98386.22;5091255;28;20052;-70
2022/02/18 00:03:24;;;;;;;11.32;5.50;;;;;;;7.19;55.59;98354.28;5098475;28;20213;-71
2022/02/18 00:05:53;;;;;;;15.05;5.78;;;;;;;7.18;55.42;98374.44;5092769;28;20044;-73
2022/02/18 00:08:20;;;;;;;6.50;3.40;;;;;;;7.19;55.06;98365.63;5085318;28;20083;-68
2022/02/18 00:10:48;;;;;;;7.20;3.30;;;;;;;7.17;55.22;98385.09;5102881;28;20054;-73
2022/02/18 00:13:15;;;;;;;15.63;7.22;;;;;;;7.27;55.08;98378.06;5099073;28;20090;-72
2022/02/18 00:15:42;;;;;;;8.73;4.10;;;;;;;7.28;55.11;98408.63;5094330;28;20059;-70
2022/02/18 00:18:09;;;;;;;6.68;3.72;;;;;;;7.26;55.13;98400.88;5085260;28;20044;-70
2022/02/18 00:20:37;;;;;;;8.80;3.25;;;;;;;7.13;55.45;98402.06;5067543;28;20432;-70
2022/02/18 00:23:07;;;;;;;7.32;2.00;;;;;;;7.30;55.33;98426.88;5102043;28;20046;-71
2022/02/18 00:25:38;;;;;;;8.30;3.38;;;;;;;7.21;55.68;98418.00;5103257;28;20054;-70
2022/02/18 00:28:06;;;;;;;7.97;3.67;;;;;;;7.17;55.65;98422.69;5087134;28;20100;-72
2022/02/18 00:30:33;;;;;;;9.32;3.38;;;;;;;7.15;55.76;98408.03;5096533;28;20058;-70
2022/02/18 00:33:00;;;;;;;15.73;3.70;;;;;;;7.23;55.59;98424.75;5096530;28;20605;-75
2022/02/18 00:35:27;;;;;;;12.05;4.50;;;;;;;7.23;55.57;98431.81;5087182;28;20131;-73
2022/02/18 00:37:55;;;;;;;21.33;3.58;;;;;;;7.24;55.37;98446.63;5105982;28;20047;-70
2022/02/18 00:40:26;;;;;;;9.75;4.18;;;;;;;7.14;55.46;98437.88;5106599;28;20097;-70
2022/02/18 00:42:53;;;;;;;9.13;3.40;;;;;;;7.21;55.38;98466.09;5090694;28;20037;-71
2022/02/18 00:45:20;;;;;;;9.52;3.45;;;;;;;7.13;55.69;98452.81;5098229;28;20067;-76
2022/02/18 00:47:47;;;;;;;8.68;3.67;;;;;;;7.10;55.75;98453.06;5106694;28;20177;-72
2022/02/18 00:50:15;;;;;;;11.07;4.68;;;;;;;6.84;56.68;98450.06;5107835;28;20059;-69
2022/02/18 00:52:42;;;;;;;6.75;2.45;;;;;;;6.92;56.56;98473.88;5107415;28;20089;-75
2022/02/18 00:55:10;;;;;;;7.13;3.05;;;;;;;7.10;56.20;98476.69;5088635;28;20654;-68
2022/02/18 00:57:39;;;;;;;7.38;3.65;;;;;;;7.03;56.33;98472.94;5098697;28;20054;-71
2022/02/18 01:00:09;;;;;;;6.22;3.13;;;;;;;7.04;56.75;98478.06;5107989;28;20040;-72
2022/02/18 01:02:36;;;;;;;5.38;2.42;;;;;;;7.01;56.79;98490.63;5101903;28;20047;-70
2022/02/18 01:05:03;;;;;;;9.27;2.83;;;;;;;7.01;56.82;98488.81;5086533;28;20093;-70
2022/02/18 01:07:30;;;;;;;4.85;1.90;;;;;;;7.04;57.01;98493.81;5096621;28;20517;-72
2022/02/18 01:09:57;;;;;;;7.38;2.78;;;;;;;7.03;57.11;98500.00;5106361;28;20048;-69
2022/02/18 01:12:25;;;;;;;12.07;2.83;;;;;;;7.05;57.18;98503.34;5090166;28;20447;-70
2022/02/18 01:14:53;;;;;;;8.45;2.35;;;;;;;7.07;57.16;98500.56;5089169;28;20240;-73
2022/02/18 01:17:21;;;;;;;6.50;2.22;;;;;;;7.15;56.94;98498.13;5106625;28;20043;-69
2022/02/18 01:19:48;;;;;;;15.52;5.13;;;;;;;7.15;56.75;98507.78;5089128;28;20078;-74
2022/02/18 01:22:15;;;;;;;13.38;3.65;;;;;;;7.21;56.68;98504.66;5105663;28;20047;-74
2022/02/18 01:24:42;;;;;;;9.63;2.88;;;;;;;7.20;56.63;98506.44;5099604;28;20048;-75
2022/02/18 01:27:09;;;;;;;6.93;1.98;;;;;;;7.26;56.33;98515.59;5087647;28;20060;-75
2022/02/18 01:29:39;;;;;;;4.68;2.13;;;;;;;7.26;56.16;98508.53;5105795;28;20604;-71
2022/02/18 01:32:09;;;;;;;9.65;1.92;;;;;;;7.24;55.90;98512.28;5090417;28;20623;-73
2022/02/18 01:34:36;;;;;;;7.97;3.28;;;;;;;7.28;55.74;98500.53;5094441;28;20422;-76
2022/02/18 01:37:05;;;;;;;8.00;3.90;;;;;;;7.30;55.53;98511.72;5105579;28;20052;-75
2022/02/18 01:39:32;;;;;;;3.65;1.33;;;;;;;7.39;55.33;98513.53;5106992;28;20081;-72
2022/02/18 01:41:59;;;;;;;11.10;2.80;;;;;;;7.40;55.29;98515.22;5087197;28;20060;-73
2022/02/18 01:44:37;;;;;;;5.82;2.15;;;;;;;7.50;55.30;98527.53;5105793;28;20059;-72
2022/02/18 01:47:05;;;;;;;6.95;2.42;;;;;;;7.46;55.08;98533.06;5087994;28;20051;-72
2022/02/18 01:49:35;;;;;;;10.60;2.08;;;;;;;7.41;54.90;98530.00;5098127;28;20075;-69
2022/02/18 01:52:03;;;;;;;12.95;3.80;;;;;;;7.37;55.13;98533.88;5083693;28;20048;-71
2022/02/18 01:54:30;;;;;;;5.43;3.25;;;;;;;7.25;55.79;98525.25;5087290;28;20040;-72
2022/02/18 01:56:57;;;;;;;8.15;2.85;;;;;;;7.14;56.24;98535.03;5096002;28;20039;-68
2022/02/18 01:59:26;;;;;;;12.35;3.90;;;;;;;7.09;56.64;98538.03;5098696;28;20058;-69
2022/02/18 02:01:53;;;;;;;7.68;3.22;;;;;;;7.10;56.44;98531.00;5087359;28;20524;-73
2022/02/18 02:04:20;;;;;;;5.70;2.47;;;;;;;7.09;56.19;98545.91;5101097;28;20054;-70
2022/02/18 02:06:50;;;;;;;15.50;3.00;;;;;;;7.05;56.08;98539.25;5105817;28;20040;-72
2022/02/18 02:09:17;;;;;;;6.72;2.15;;;;;;;7.09;56.31;98548.53;5086100;28;20154;-70
2022/02/18 02:11:44;;;;;;;6.53;2.10;;;;;;;7.11;56.01;98580.72;5086803;28;20104;-72
2022/02/18 02:14:12;;;;;;;12.15;5.35;;;;;;;7.06;55.26;98533.06;5095055;28;20048;-71
2022/02/18 02:16:39;;;;;;;9.93;2.70;;;;;;;7.06;55.15;98557.50;5107727;28;20479;-74
2022/02/18 02:19:06;;;;;;;8.25;2.20;;;;;;;7.15;55.10;98560.28;5087885;28;20047;-69
2022/02/18 02:21:33;;;;;;;7.05;2.88;;;;;;;7.18;54.55;98565.28;5086213;28;20047;-74
2022/02/18 02:24:01;;;;;;;6.80;2.75;;;;;;;7.23;54.54;98558.69;5087806;28;20054;-69
2022/02/18 02:26:28;;;;;;;15.20;4.68;;;;;;;7.20;53.65;98568.63;5087029;28;20055;-74
2022/02/18 02:28:55;;;;;;;12.13;4.82;;;;;;;7.17;53.05;98568.91;5099013;28;20048;-70
2022/02/18 02:31:23;;;;;;;11.68;4.97;;;;;;;7.22;52.86;98582.44;5090095;28;20055;-72
2022/02/18 02:33:50;;;;;;;10.60;3.33;;;;;;;7.30;52.75;98584.44;5095308;28;20146;-71
2022/02/18 02:36:21;;;;;;;6.88;3.22;;;;;;;7.31;52.17;98576.44;5106360;28;20079;-73
2022/02/18 02:38:48;;;;;;;11.43;4.07;;;;;;;7.28;51.95;98566.19;5090604;28;20050;-71
2022/02/18 02:41:17;;;;;;;10.85;3.50;;;;;;;7.32;51.66;98593.00;5084948;28;20147;-72
2022/02/18 02:43:44;;;;;;;6.05;2.53;;;;;;;7.37;52.11;98591.66;5086311;28;20223;-72
2022/02/18 02:46:12;;;;;;;12.48;4.30;;;;;;;7.37;51.55;98560.13;5103245;28;20043;-71
2022/02/18 02:48:39;;;;;;;11.38;3.75;;;;;;;7.22;51.85;98570.16;5099817;28;20066;-73
2022/02/18 02:51:06;;;;;;;11.13;2.45;;;;;;;7.34;51.54;98576.16;5087197;28;20040;-71
2022/02/18 02:53:33;;;;;;;10.27;3.22;;;;;;;7.39;51.53;98592.34;5100483;28;20054;-70
2022/02/18 02:56:00;;;;;;;9.30;3.80;;;;;;;7.38;51.03;98577.56;5100930;28;20052;-70
2022/02/18 02:58:28;;;;;;;13.32;2.35;;;;;;;7.45;51.40;98590.97;5085339;28;20056;-70
2022/02/18 03:00:55;;;;;;;11.80;4.07;;;;;;;7.45;51.13;98590.97;5085496;28;20052;-72
2022/02/18 03:03:22;;;;;;;14.00;3.15;;;;;;;7.42;51.20;98613.09;5085701;28;20131;-73
2022/02/18 03:05:49;;;;;;;8.05;2.83;;;;;;;7.55;50.90;98601.53;5097693;28;20047;-68
2022/02/18 03:08:16;;;;;;;11.63;2.30;;;;;;;7.57;50.97;98616.19;5085839;28;20142;-70
2022/02/18 03:11:14;;;;;;;6.13;2.05;;;;;;;7.58;50.35;98622.28;5084790;28;20075;-73
2022/02/18 03:13:32;;;;;;;10.07;2.47;;;;;;;7.40;50.65;98625.53;5094950;28;20092;-72
2022/02/18 03:15:59;;;;;;;9.50;3.30;;;;;;;7.38;50.62;98624.84;5105556;28;20502;-70
2022/02/18 03:18:26;;;;;;;10.02;4.00;;;;;;;7.42;50.40;98631.50;5105724;28;20050;-71
2022/02/18 03:20:53;;;;;;;11.80;3.65;;;;;;;7.45;50.48;98633.88;5096459;28;20051;-70
2022/02/18 03:23:20;;;;;;;9.98;2.75;;;;;;;7.37;50.82;98638.09;5104105;28;20131;-74
2022/02/18 03:25:47;;;;;;;10.65;4.03;;;;;;;7.30;51.24;98632.53;5102649;28;20046;-68
2022/02/18 03:28:15;;;;;;;7.80;2.58;;;;;;;7.31;51.44;98654.34;5086747;28;20050;-71
2022/02/18 03:30:44;;;;;;;9.32;3.45;;;;;;;7.32;51.58;98643.72;5096944;28;20099;-74
2022/02/18 03:33:11;;;;;;;11.38;3.85;;;;;;;7.20;51.81;98640.38;5107843;28;20040;-69
2022/02/18 03:35:38;;;;;;;7.78;2.53;;;;;;;7.15;52.21;98652.19;5094128;28;20151;-71
2022/02/18 03:38:05;;;;;;;3.50;2.03;;;;;;;7.23;52.17;98663.72;5098635;28;20121;-70
2022/02/18 03:40:32;;;;;;;11.73;4.38;;;;;;;7.22;51.96;98683.06;5099941;28;20101;-70
2022/02/18 03:42:59;;;;;;;9.38;3.17;;;;;;;7.17;51.80;98658.16;5110643;28;20087;-70
2022/02/18 03:45:27;;;;;;;12.13;2.58;;;;;;;7.15;51.89;98683.69;5119662;28;20454;-70
2022/02/18 03:47:55;;;;;;;9.73;4.13;;;;;;;7.11;52.03;98677.88;5114395;28;20336;-69
2022/02/18 03:50:23;;;;;;;14.48;3.40;;;;;;;7.21;51.80;98684.03;5112613;27;20055;-70
2022/02/18 03:52:51;;;;;;;9.55;2.80;;;;;;;7.21;51.61;98685.81;5118291;28;20066;-70
2022/02/18 03:55:18;;;;;;;8.27;2.83;;;;;;;7.16;51.51;98688.00;5105518;28;20050;-69
2022/02/18 03:57:45;;;;;;;10.73;2.92;;;;;;;7.23;51.46;98702.28;5122043;28;20103;-69
2022/02/18 04:00:13;;;;;;;13.75;3.90;;;;;;;7.18;51.08;98692.16;5112829;28;20084;-73
2022/02/18 04:02:40;;;;;;;11.93;2.83;;;;;;;7.20;51.05;98695.50;5127159;28;20050;-70
2022/02/18 04:05:09;;;;;;;9.10;3.15;;;;;;;7.32;51.14;98698.06;5119792;28;20100;-71
2022/02/18 04:07:36;;;;;;;12.90;4.95;;;;;;;7.25;50.84;98702.97;5106807;28;20068;-72
2022/02/18 04:10:04;;;;;;;9.65;2.58;;;;;;;7.29;50.91;98717.50;5122096;28;20055;-72
2022/02/18 04:12:31;;;;;;;9.93;3.58;;;;;;;7.30;50.50;98724.44;5112420;27;20306;-70
2022/02/18 04:14:58;;;;;;;5.07;2.20;;;;;;;7.43;50.49;98732.13;5121232;28;20078;-71
2022/02/18 04:17:26;;;;;;;9.70;3.75;;;;;;;7.28;50.15;98715.88;5097870;28;20043;-71
2022/02/18 04:19:54;;;;;;;5.00;1.83;;;;;;;7.39;50.21;98734.19;5095044;28;20488;-68
2022/02/18 04:22:22;;;;;;;10.30;3.55;;;;;;;7.34;50.01;98733.72;5095520;28;20059;-71
2022/02/18 04:24:49;;;;;;;11.77;2.90;;;;;;;7.31;50.16;98755.00;5111536;28;20047;-69
2022/02/18 04:27:16;;;;;;;8.85;3.30;;;;;;;7.40;49.90;98749.00;5099988;28;20056;-71
2022/02/18 04:29:43;;;;;;;9.20;1.85;;;;;;;7.46;49.61;98743.22;5095112;28;20407;-70
2022/02/18 04:32:12;;;;;;;10.93;3.58;;;;;;;7.47;49.83;98744.88;5098006;28;20048;-68
2022/02/18 04:34:39;;;;;;;13.57;4.15;;;;;;;7.46;49.45;98740.59;5093291;28;20051;-71
2022/02/18 04:37:06;;;;;;;9.05;3.85;;;;;;;7.46;49.57;98756.34;5087219;28;20051;-69
2022/02/18 04:39:35;;;;;;;10.90;3.80;;;;;;;7.36;49.59;98755.44;5098368;28;20502;-69
2022/02/18 04:42:02;;;;;;;13.40;4.80;;;;;;;7.37;49.69;98770.25;5097730;28;20080;-69
2022/02/18 04:44:29;;;;;;;9.65;4.65;;;;;;;7.33;49.81;98765.38;5088967;28;20048;-72
2022/02/18 04:46:55;;;;;;;8.55;4.18;;;;;;;7.30;49.95;98781.41;5091694;28;20050;-70
2022/02/18 04:49:22;;;;;;;19.83;5.38;;;;;;;7.41;49.74;98784.78;5086831;28;20407;-68
2022/02/18 04:51:49;;;;;;;10.35;4.20;;;;;;;7.42;49.71;98780.38;5103851;28;20636;-68
2022/02/18 04:54:17;;;;;;;15.07;3.67;;;;;;;7.38;49.47;98785.06;5086806;28;20040;-68
2022/02/18 04:56:45;;;;;;;10.32;3.40;;;;;;;7.26;49.81;98784.28;5096036;28;20040;-69
2022/02/18 04:59:12;;;;;;;11.65;3.25;;;;;;;7.26;49.98;98779.03;5105271;28;20044;-69
2022/02/18 05:01:40;;;;;;;14.05;3.92;;;;;;;7.22;50.00;98792.50;5094961;28;20040;-69
2022/02/18 05:04:07;;;;;;;10.73;4.20;;;;;;;7.20;50.02;98778.69;5073853;28;20058;-72
2022/02/18 05:06:34;;;;;;;7.72;3.28;;;;;;;7.19;50.16;98787.53;5096702;28;20036;-68
2022/02/18 05:09:04;;;;;;;10.20;3.22;;;;;;;7.23;50.20;98795.03;5093523;28;20048;-68
2022/02/18 05:11:31;;;;;;;10.23;4.05;;;;;;;7.25;49.91;98797.53;5094988;28;20048;-69
2022/02/18 05:14:00;;;;;;;12.98;4.65;;;;;;;7.12;50.32;98795.06;5095459;28;20039;-68
2022/02/18 05:16:27;;;;;;;10.32;3.20;;;;;;;7.15;50.45;98814.97;5093779;28;20127;-73
2022/02/18 05:18:55;;;;;;;13.93;3.80;;;;;;;7.10;50.48;98804.88;5095640;28;20046;-71
2022/02/18 05:21:22;;;;;;;9.45;3.28;;;;;;;7.00;50.69;98812.63;5093267;28;20076;-68
2022/02/18 05:23:49;;;;;;;12.02;3.75;;;;;;;6.89;51.59;98810.06;5092662;28;20123;-68
2022/02/18 05:26:17;;;;;;;7.38;3.40;;;;;;;6.86;51.69;98810.28;5099458;28;20048;-71
2022/02/18 05:28:44;;;;;;;12.52;4.40;;;;;;;6.93;51.56;98819.34;5099794;28;20048;-70
2022/02/18 05:31:12;;;;;;;10.80;3.83;;;;;;;6.88;51.95;98806.59;5090419;28;20416;-69
2022/02/18 05:33:39;;;;;;;16.83;5.18;;;;;;;6.88;51.92;98813.66;5095581;28;20046;-69
2022/02/18 05:36:06;;;;;;;14.88;3.20;;;;;;;6.88;52.02;98826.78;5098538;28;20059;-69
2022/02/18 05:38:33;;;;;;;9.43;2.75;;;;;;;6.90;51.85;98830.09;5084731;28;20060;-70
2022/02/18 05:41:00;;;;;;;7.60;2.67;;;;;;;6.91;51.58;98821.25;5077352;28;20552;-71
2022/02/18 05:43:27;;;;;;;11.70;3.72;;;;;;;6.97;51.57;98827.81;5085836;28;20066;-69
2022/02/18 05:45:54;;;;;;;10.90;3.63;;;;;;;6.95;51.09;98827.94;5101128;28;20119;-71
2022/02/18 05:48:22;;;;;;;14.02;3.25;;;;;;;7.01;50.86;98839.75;5097105;28;20550;-72
2022/02/18 05:50:49;;;;;;;11.98;3.05;;;;;;;7.05;50.26;98844.59;5087860;28;20044;-71
2022/02/18 05:53:16;;;;;;;10.52;4.85;;;;;;;7.12;50.43;98846.75;5095989;28;20621;-69
2022/02/18 05:55:43;;;;;;;8.57;3.58;;;;;;;7.08;50.35;98854.88;5090064;28;20127;-69
2022/02/18 05:58:10;;;;;;;10.13;3.65;;;;;;;7.03;49.56;98856.19;5103726;28;20061;-73
2022/02/18 06:00:37;;;;;;;11.15;4.32;;;;;;;7.14;49.80;98866.66;5099566;28;20127;-71
2022/02/18 06:03:04;;;;;;;11.68;2.90;;;;;;;7.14;49.57;98861.41;5084020;28;20048;-72
2022/02/18 06:05:33;;;;;;;10.60;3.10;;;;;;;7.07;49.60;98866.31;5105736;28;20058;-72
2022/02/18 06:07:59;;;;;;;7.10;2.20;;;;;;;7.19;49.46;98888.16;5086384;28;20043;-70
2022/02/18 06:10:27;;;;;;;12.40;4.03;;;;;;;7.16;49.30;98861.28;5109615;27;20119;-71
2022/02/18 06:12:54;;;;;;;10.55;3.72;;;;;;;7.12;49.28;98873.84;5095160;27;20127;-71
2022/02/18 06:15:21;;;;;;;15.23;4.65;;;;;;;7.20;49.19;98874.06;5095880;28;20116;-71
2022/02/18 06:17:48;;;;;;;6.88;3.58;;;;;;;7.14;49.19;98884.22;5088050;28;20127;-71
2022/02/18 06:20:15;;;;;;;13.40;3.17;;;;;;;7.13;49.51;98890.41;5094817;28;20044;-71
2022/02/18 06:22:43;;;;;;;10.45;4.32;;;;;;;7.18;49.46;98893.50;5102230;28;20054;-70
2022/02/18 06:25:11;;;;;;;15.73;4.13;;;;;;;7.17;49.23;98895.31;5097502;28;20697;-69
2022/02/18 06:27:39;;;;;;;12.35;4.95;;;;;;;7.08;49.27;98889.00;5101792;28;20072;-73
2022/02/18 06:30:07;;;;;;;10.02;4.28;;;;;;;7.08;49.21;98896.06;5092268;28;20051;-67
2022/02/18 06:32:34;;;;;;;11.60;4.03;;;;;;;7.03;49.51;98900.84;5096648;28;20039;-75
2022/02/18 06:35:01;;;;;;;9.70;3.33;;;;;;;7.07;49.68;98916.19;5102024;28;20058;-67
2022/02/18 06:37:28;;;;;;;14.70;3.63;;;;;;;7.10;49.73;98916.94;5042934;28;20048;-69
2022/02/18 06:39:56;;;;;;;12.65;3.45;;;;;;;7.09;49.95;98926.59;5090715;28;20044;-70
2022/02/18 06:42:23;;;;;;;10.48;3.10;;;;;;;7.08;50.03;98938.88;5098269;28;20069;-72
2022/02/18 06:44:50;;;;;;;8.40;4.95;;;;;;;7.17;50.05;98941.75;5093238;28;20134;-69
2022/02/18 06:47:17;;;;;;;9.07;4.10;;;;;;;7.15;50.05;98938.38;5100777;27;20046;-68
2022/02/18 06:49:44;;;;;;;8.48;3.47;;;;;;;7.15;50.07;98948.91;5095387;28;20039;-70
2022/02/18 06:52:12;;;;;;;10.68;3.83;;;;;;;7.21;49.65;98937.91;5090853;28;20052;-70
2022/02/18 06:54:41;;;;;;;11.25;4.00;;;;;;;7.21;49.55;98953.69;5093906;28;20614;-69
2022/02/18 06:57:12;;;;;;;11.48;3.67;;;;;;;7.20;49.67;98975.63;5085805;28;20044;-73
2022/02/18 06:59:39;;;;;;;10.60;4.65;;;;;;;7.17;49.65;98968.00;5091792;28;20047;-69
2022/02/18 07:02:06;;;;;;;13.20;4.75;;;;;;;7.17;49.63;98971.47;5097500;28;20078;-71
2022/02/18 07:04:33;;;;;;;10.45;3.88;;;;;;;7.18;49.50;98983.63;5087498;28;20143;-70
2022/02/18 07:07:00;;;;;;;9.10;4.15;;;;;;;7.23;49.67;98983.28;5102064;28;20062;-70
2022/02/18 07:09:27;;;;;;;10.00;4.13;;;;;;;7.25;49.66;98992.69;5103585;28;20052;-69
2022/02/18 07:11:54;;;;;;;9.70;4.93;;;;;;;7.18;49.31;98974.91;5102514;28;20044;-70
2022/02/18 07:14:22;;;;;;;10.02;2.60;;;;;;;7.25;49.46;98991.84;5103657;28;20054;-70
2022/02/18 07:16:50;;;;;;;12.85;3.58;;;;;;;7.28;49.48;98997.69;5103285;28;20050;-68
2022/02/18 07:19:17;;;;;;;8.13;3.25;;;;;;;7.42;49.33;98988.75;5102200;28;20512;-69
2022/02/18 07:21:44;;;;;;;8.30;4.30;;;;;;;7.33;48.76;98986.84;5103630;28;20399;-70
2022/02/18 07:24:14;;;;;;;10.15;3.50;;;;;;;7.41;49.15;98997.56;5107081;28;20051;-70
2022/02/18 07:26:41;;;;;;;11.15;3.30;;;;;;;7.47;49.04;98997.09;5105359;28;20151;-70
2022/02/18 07:29:08;;;;;;;19.30;5.38;;;;;;;7.44;48.99;99001.75;5107541;28;20337;-70
2022/02/18 07:31:37;;;;;;;10.75;3.83;;;;;;;7.49;49.00;98994.34;5107019;28;20058;-71
2022/02/18 07:34:05;;;;;;;9.07;3.20;;;;;;;7.49;48.99;99002.22;5106397;28;20073;-70
2022/02/18 07:36:32;;;;;;;11.10;2.58;;;;;;;7.52;49.07;99009.84;5109693;28;20135;-70
2022/02/18 07:38:59;;;;;;;19.20;5.13;;;;;;;7.45;49.17;99006.91;5107180;28;20072;-69
2022/02/18 07:41:26;;;;;;;9.38;4.97;;;;;;;7.43;49.07;99013.22;5105335;28;20506;-69
2022/02/18 07:43:53;;;;;;;7.32;3.45;;;;;;;7.56;49.22;99010.44;5107220;28;20083;-69
2022/02/18 07:46:20;;;;;;;9.90;3.40;;;;;;;7.51;49.17;99017.84;5106480;28;20081;-69
2022/02/18 07:48:49;;;;;;;8.25;3.38;;;;;;;7.41;49.69;99026.47;5105582;28;20075;-71
2022/02/18 07:51:16;;;;;;;12.88;6.15;;;;;;;7.47;49.58;99023.38;5107281;28;20061;-71
2022/02/18 07:53:42;;;;;;;13.90;4.30;;;;;;;7.39;49.53;99020.50;5103989;28;20671;-72
2022/02/18 07:56:09;;;;;;;16.50;5.47;;;;;;;7.34;49.70;99017.41;5105872;28;20696;-69
2022/02/18 07:58:39;;;;;;;5.20;3.00;;;;;;;7.34;50.10;99030.53;5106220;28;20077;-71
2022/02/18 08:01:06;;;;;;;9.30;4.57;;;;;;;7.56;49.65;99031.47;5086468;28;20699;-70
2022/02/18 08:03:33;;;;;;;10.35;4.00;;;;;;;7.64;49.50;99029.06;5106174;28;20050;-72
2022/02/18 08:06:01;;;;;;;11.98;5.05;;;;;;;7.59;49.11;99024.16;5105891;28;20692;-69
2022/02/18 08:08:28;;;;;;;10.35;3.35;;;;;;;7.60;49.42;99038.16;5103158;28;20040;-70
2022/02/18 08:10:55;;;;;;;13.25;4.50;;;;;;;7.61;48.46;99017.00;5106370;28;20391;-72
2022/02/18 08:13:22;;;;;;;10.82;3.00;;;;;;;7.59;49.25;99026.78;5105356;28;20050;-71
2022/02/18 08:15:49;;;;;;;11.18;3.78;;;;;;;7.81;48.83;99025.94;5105420;28;20453;-70
2022/02/18 08:18:19;;;;;;;5.45;2.17;;;;;;;7.91;48.51;99038.31;5105412;28;20054;-71
2022/02/18 08:20:46;;;;;;;9.20;3.25;;;;;;;7.77;48.04;99037.63;5105571;28;20134;-71
2022/02/18 08:23:15;;;;;;;15.15;4.57;;;;;;;7.80;48.06;99036.56;5101467;28;20083;-72
2022/02/18 08:25:42;;;;;;;13.48;4.57;;;;;;;7.97;47.88;99037.81;5106463;28;20143;-70
2022/02/18 08:28:09;;;;;;;11.07;2.88;;;;;;;8.20;47.62;99059.63;5105202;28;20047;-69
2022/02/18 08:30:36;;;;;;;11.07;4.63;;;;;;;8.05;46.46;99043.31;5104561;28;20099;-70
2022/02/18 08:33:03;;;;;;;12.50;4.72;;;;;;;8.13;47.19;99063.69;5105346;28;20054;-73
2022/02/18 08:35:29;;;;;;;14.60;4.72;;;;;;;8.34;47.09;99071.66;5104762;28;20529;-68
2022/02/18 08:37:57;;;;;;;8.07;3.60;;;;;;;8.56;46.79;99076.81;5104247;28;20135;-68
2022/02/18 08:40:25;;;;;;;18.10;7.63;;;;;;;8.50;46.26;99060.69;5105995;28;20046;-71
2022/02/18 08:42:52;;;;;;;12.48;4.60;;;;;;;8.19;46.47;99077.19;5105091;28;20130;-68
2022/02/18 08:45:20;;;;;;;15.85;4.55;;;;;;;8.15;46.12;99062.59;5103106;28;20048;-68
2022/02/18 08:47:46;;;;;;;13.75;3.95;;;;;;;8.15;46.46;99096.81;5105711;28;20040;-71
2022/02/18 08:50:14;;;;;;;11.45;4.47;;;;;;;8.19;46.36;99090.34;5103972;28;20139;-71
2022/02/18 08:52:42;;;;;;;10.73;3.90;;;;;;;7.94;46.56;99099.38;5102113;28;20126;-70
2022/02/18 08:55:11;;;;;;;10.45;4.68;;;;;;;7.76;47.29;99085.06;5106122;28;20415;-72
2022/02/18 08:57:41;;;;;;;10.23;4.40;;;;;;;7.65;47.83;99085.91;5105502;28;20093;-73
2022/02/18 09:00:09;;;;;;;11.60;5.50;;;;;;;7.55;48.00;99084.97;5067955;28;20089;-70
2022/02/18 09:02:36;;;;;;;14.23;5.22;;;;;;;7.54;48.25;99106.94;5106190;28;20487;-74
2022/02/18 09:05:04;;;;;;;14.20;4.40;;;;;;;7.62;48.14;99104.56;5103967;28;20044;-73
2022/02/18 09:07:31;;;;;;;12.15;3.60;;;;;;;7.64;48.32;99106.09;5103973;28;20093;-72
2022/02/18 09:09:58;;;;;;;10.85;4.13;;;;;;;7.71;48.31;99103.00;5104127;28;20143;-69
2022/02/18 09:12:25;;;;;;;13.82;3.55;;;;;;;7.75;48.20;99107.88;5106248;28;20051;-71
2022/02/18 09:14:54;;;;;;;12.05;3.78;;;;;;;7.90;48.05;99118.13;5107940;28;20618;-70
2022/02/18 09:17:22;;;;;;;12.07;5.18;;;;;;;7.82;48.27;99116.97;5107258;28;20131;-71
2022/02/18 09:19:51;;;;;;;20.88;6.00;;;;;;;7.81;48.48;99120.56;5106868;28;20048;-71
2022/02/18 09:22:18;;;;;;;18.23;4.47;;;;;;;7.77;48.50;99115.66;5105998;28;20071;-72
2022/02/18 09:24:47;;;;;;;13.65;3.92;;;;;;;7.88;48.41;99120.06;5104633;28;20802;-69
2022/02/18 09:27:14;;;;;;;10.68;2.85;;;;;;;7.80;48.19;99124.13;5103040;28;20123;-68
2022/02/18 09:29:41;;;;;;;6.95;2.70;;;;;;;8.02;48.05;99127.69;5103089;28;20505;-71
2022/02/18 09:32:09;;;;;;;11.65;3.38;;;;;;;8.12;47.93;99131.25;5103491;28;20044;-70
2022/02/18 09:34:36;;;;;;;9.38;2.90;;;;;;;8.20;47.86;99141.97;5102072;28;20067;-70
2022/02/18 09:37:05;;;;;;;11.15;4.90;;;;;;;8.13;47.51;99138.16;5104360;28;20047;-71
2022/02/18 09:39:32;;;;;;;14.50;4.95;;;;;;;8.31;47.57;99145.56;5102358;28;20606;-70
2022/02/18 09:41:59;;;;;;;18.60;8.88;;;;;;;8.37;47.25;99147.66;5101362;28;20656;-73
2022/02/18 09:44:28;;;;;;;15.88;5.60;;;;;;;8.23;46.59;99122.50;5100544;28;20048;-71
2022/02/18 09:46:58;;;;;;;10.93;4.63;;;;;;;8.20;46.48;99141.97;5101953;28;20051;-70
2022/02/18 09:49:27;;;;;;;9.85;4.38;;;;;;;8.22;46.42;99132.16;5101644;28;20048;-70
2022/02/18 09:51:56;;;;;;;14.00;3.80;;;;;;;8.51;46.46;99136.88;5098559;28;20051;-69
2022/02/18 09:54:26;;;;;;;7.57;3.30;;;;;;;8.76;45.96;99140.16;5101206;28;20392;-68
2022/02/18 09:56:53;;;;;;;13.63;4.05;;;;;;;9.14;45.60;99146.63;5101335;28;20146;-68
2022/02/18 09:59:20;;;;;;;13.30;4.10;;;;;;;9.20;44.73;99156.69;5101951;28;20054;-70
2022/02/18 10:01:47;;;;;;;14.32;4.65;;;;;;;9.22;43.98;99148.63;5100318;28;20092;-71
2022/02/18 10:04:14;;;;;;;9.75;3.13;;;;;;;9.17;43.98;99154.28;5101380;28;20051;-70
2022/02/18 10:06:42;;;;;;;11.32;5.00;;;;;;;8.97;44.47;99138.34;5101911;28;20418;-70
2022/02/18 10:09:09;;;;;;;15.40;3.88;;;;;;;8.83;44.61;99157.09;5100211;28;20709;-70
2022/02/18 10:11:51;;;;;;;12.55;4.57;;;;;;;9.12;44.11;99145.94;5100968;28;20441;-70
2022/02/18 10:14:18;;;;;;;8.65;3.53;;;;;;;9.08;43.98;99168.25;5103812;28;20064;-70
2022/02/18 10:16:45;;;;;;;6.15;2.78;;;;;;;9.10;43.71;99166.31;5065120;28;20048;-69
2022/02/18 10:19:13;;;;;;;11.25;4.30;;;;;;;9.06;42.86;99155.19;5103817;28;20629;-70
2022/02/18 10:21:42;;;;;;;8.70;3.40;;;;;;;8.98;43.71;99160.25;5100106;28;20047;-71
2022/02/18 10:24:12;;;;;;;17.85;3.60;;;;;;;8.88;43.46;99154.09;5099144;28;20162;-71
2022/02/18 10:26:41;;;;;;;11.90;3.70;;;;;;;8.76;43.42;99169.09;5100980;28;20048;-71
2022/02/18 10:29:10;;;;;;;10.50;4.03;;;;;;;8.74;43.99;99171.03;5101782;28;20419;-70
2022/02/18 10:31:37;;;;;;;7.78;2.67;;;;;;;8.80;43.87;99181.91;5098440;28;20065;-73
2022/02/18 10:34:06;;;;;;;11.13;3.80;;;;;;;8.71;43.06;99173.91;5101771;28;20055;-69
2022/02/18 10:36:39;;;;;;;8.98;3.33;;;;;;;8.78;42.75;99165.38;5100579;28;20047;-72
2022/02/18 10:39:28;;;;;;;16.48;5.18;;;;;;;8.88;42.61;99169.91;5100226;28;20134;-72
2022/02/18 10:41:57;;;;;;;12.10;3.95;;;;;;;8.67;43.01;99160.16;5102169;28;20047;-71
2022/02/18 10:44:26;;;;;;;8.25;2.95;;;;;;;8.61;43.25;99179.09;5100374;28;20395;-68
2022/02/18 10:46:56;;;;;;;14.73;4.78;;;;;;;8.71;43.50;99182.63;5100638;28;20074;-71
2022/02/18 10:49:24;;;;;;;8.65;3.40;;;;;;;8.70;43.17;99162.56;5101426;28;20530;-71
2022/02/18 10:51:51;;;;;;;8.05;2.40;;;;;;;8.78;43.38;99167.19;5097902;28;20126;-72
2022/02/18 10:54:28;;;;;;;12.77;2.90;;;;;;;9.11;43.08;99170.59;5047491;28;20046;-70
2022/02/18 10:57:15;;;;;;;15.15;3.58;;;;;;;9.30;42.30;99156.72;5100679;28;20066;-69
2022/02/18 10:59:43;;;;;;;10.80;3.63;;;;;;;9.04;42.65;99153.63;5099328;28;20044;-70
2022/02/18 11:02:10;;;;;;;9.90;3.33;;;;;;;8.92;42.15;99158.97;5100935;28;20154;-70
2022/02/18 11:04:37;;;;;;;15.75;5.28;;;;;;;8.83;42.31;99143.13;5100236;28;20051;-71
2022/02/18 11:07:13;;;;;;;19.48;6.55;;;;;;;8.65;42.90;99142.84;5099375;28;20123;-71
2022/02/18 11:09:41;;;;;;;10.23;3.67;;;;;;;8.80;42.84;99144.19;5102276;28;20102;-74
2022/02/18 11:12:09;;;;;;;23.50;10.43;;;;;;;9.05;42.29;99148.25;5100735;28;20047;-71
2022/02/18 11:14:41;;;;;;;13.65;5.15;;;;;;;9.13;42.27;99134.44;5101112;28;20044;-71
2022/02/18 11:17:08;;;;;;;12.98;4.85;;;;;;;9.27;42.38;99142.00;5101469;28;20122;-72
2022/02/18 11:19:36;;;;;;;13.55;4.72;;;;;;;9.53;41.75;99147.69;5099700;28;20054;-72
2022/02/18 11:22:03;;;;;;;9.45;4.72;;;;;;;9.74;41.13;99142.38;5098489;28;20048;-71
2022/02/18 11:24:30;;;;;;;9.93;4.85;;;;;;;9.85;39.59;99130.03;5101651;28;20131;-70
2022/02/18 11:27:01;;;;;;;13.90;5.03;;;;;;;9.87;38.92;99141.31;5101876;28;20488;-72
2022/02/18 11:29:28;;;;;;;15.02;5.53;;;;;;;10.11;38.36;99133.84;5101251;28;20112;-71
2022/02/18 11:32:03;;;;;;;10.80;3.65;;;;;;;10.68;37.43;99128.81;5099864;28;20048;-72
2022/02/18 11:35:00;;;;;;;5.90;2.70;;;;;;;11.08;37.13;99126.94;5099542;28;20053;-74
2022/02/18 11:38:00;;;;;;;8.77;3.25;;;;;;;11.24;36.92;99115.78;5098393;28;20115;-70
2022/02/18 11:40:42;;;;;;;10.57;3.35;;;;;;;11.38;36.42;99120.63;5100677;28;20043;-69